createdAt,value
2023-01-18T00:05:50.985Z,2.49
2023-01-18T00:20:42.793Z,2.46
2023-01-18T00:35:32.963Z,2.37
2023-01-18T00:50:23.308Z,2.43
2023-01-18T01:05:38.972Z,2.35
2023-01-18T01:20:52.660Z,2.31
2023-01-18T01:35:48.375Z,2.43
2023-01-18T01:50:40.065Z,2.31
2023-01-18T02:05:30.909Z,2.39
2023-01-18T02:20:44.641Z,2.33
2023-01-18T02:35:46.152Z,2.36
2023-01-18T02:50:40.881Z,2.38
2023-01-18T03:05:31.784Z,2.46
2023-01-18T03:20:25.318Z,2.51
2023-01-18T03:35:14.109Z,2.39
2023-01-18T03:50:03.745Z,2.28
2023-01-18T04:04:55.219Z,2.02
2023-01-18T04:19:43.915Z,2.03
2023-01-18T04:34:33.982Z,1.97
2023-01-18T04:49:24.093Z,2.05
2023-01-18T05:04:13.975Z,2.10
2023-01-18T05:19:04.107Z,2.12
2023-01-18T05:33:53.934Z,2.11
2023-01-18T05:48:43.156Z,2.09
2023-01-18T06:03:32.791Z,2.11
2023-01-18T06:18:25.399Z,2.12
2023-01-18T06:33:17.808Z,2.01
2023-01-18T06:48:07.415Z,2.03
2023-01-18T07:02:58.503Z,2.02
2023-01-18T07:17:48.292Z,1.97
2023-01-18T07:32:39.143Z,2.03
2023-01-18T07:47:30.539Z,2.16
2023-01-18T08:02:21.087Z,2.19
2023-01-18T08:17:12.167Z,2.35
2023-01-18T08:32:02.558Z,2.40
2023-01-18T08:46:53.607Z,2.50
2023-01-18T09:01:44.995Z,2.60
2023-01-18T09:16:35.925Z,2.74
2023-01-18T09:31:26.047Z,2.80
2023-01-18T09:46:18.904Z,2.94
2023-01-18T10:01:17.347Z,2.99
2023-01-18T10:16:12.693Z,3.31
2023-01-18T10:31:22.009Z,3.50
2023-01-18T10:46:17.840Z,3.84
2023-01-18T11:01:08.933Z,3.83
2023-01-18T11:16:14.591Z,3.92
2023-01-18T11:31:15.994Z,3.90
2023-01-18T11:46:21.789Z,4.05
2023-01-18T12:01:17.177Z,4.25
2023-01-18T12:16:28.334Z,4.20
2023-01-18T12:31:33.781Z,4.41
2023-01-18T12:46:28.761Z,4.59
2023-01-18T13:01:19.760Z,4.70
2023-01-18T13:16:19.047Z,4.90
2023-01-18T13:31:13.358Z,4.99
2023-01-18T13:46:08.721Z,4.98
2023-01-18T14:01:05.849Z,4.98
2023-01-18T14:15:59.071Z,5.10
2023-01-18T14:30:50.101Z,4.93
2023-01-18T14:45:39.649Z,4.81
2023-01-18T15:00:29.140Z,4.51
2023-01-18T15:15:17.923Z,4.43
2023-01-18T15:30:08.788Z,4.27
2023-01-18T15:44:58.738Z,4.14
2023-01-18T15:59:48.690Z,3.92
2023-01-18T16:14:38.324Z,3.64
2023-01-18T16:29:28.301Z,3.45
2023-01-18T16:44:18.210Z,3.24
2023-01-18T16:59:20.435Z,3.12
2023-01-18T17:14:14.654Z,2.98
2023-01-18T17:29:03.661Z,2.82
2023-01-18T17:43:53.388Z,2.67
2023-01-18T17:58:42.649Z,2.48
2023-01-18T18:13:31.648Z,2.38
2023-01-18T18:28:21.698Z,2.25
2023-01-18T18:43:11.683Z,2.18
2023-01-18T18:58:01.734Z,2.12
2023-01-18T19:12:50.633Z,2.04
2023-01-18T19:27:43.935Z,1.98
2023-01-18T19:42:34.698Z,1.94
2023-01-18T19:57:23.741Z,1.84
2023-01-18T20:12:13.534Z,1.77
2023-01-18T20:27:15.042Z,1.76
2023-01-18T20:41:53.275Z,1.76
2023-01-18T20:56:44.376Z,1.72
2023-01-18T21:11:33.993Z,1.67
2023-01-18T21:41:43.703Z,1.61
2023-01-18T21:56:38.613Z,1.54
2023-01-18T22:11:31.916Z,1.43
2023-01-18T22:26:23.927Z,1.40
2023-01-18T22:41:12.916Z,1.33
2023-01-18T22:56:02.063Z,1.31
2023-01-18T23:10:57.132Z,1.28
2023-01-18T23:25:56.772Z,1.39
2023-01-18T23:41:09.284Z,1.41
2023-01-18T23:56:04.523Z,1.40
